createdAt,value
2022-10-18T00:00:29.886Z,2.85
2022-10-18T00:02:57.844Z,3.53
2022-10-18T00:05:25.648Z,3.50
2022-10-18T00:07:53.538Z,2.92
2022-10-18T00:10:21.318Z,3.15
2022-10-18T00:12:49.131Z,3.38
2022-10-18T00:15:18.827Z,4.30
2022-10-18T00:17:46.818Z,3.40
2022-10-18T00:20:14.622Z,3.10
2022-10-18T00:22:44.829Z,3.40
2022-10-18T00:25:12.762Z,3.65
2022-10-18T00:27:40.888Z,3.17
2022-10-18T00:30:09.169Z,4.15
2022-10-18T00:32:38.806Z,3.42
2022-10-18T00:35:07.732Z,3.80
2022-10-18T00:37:36.012Z,3.50
2022-10-18T00:40:04.375Z,2.95
2022-10-18T00:42:33.803Z,3.42
2022-10-18T00:45:15.332Z,4.47
2022-10-18T00:47:45.755Z,3.50
2022-10-18T00:50:13.871Z,3.22
2022-10-18T00:52:46.948Z,3.50
2022-10-18T00:57:44.330Z,4.20
2022-10-18T01:00:12.784Z,3.97
2022-10-18T01:02:42.047Z,3.35
2022-10-18T01:05:14.125Z,3.35
2022-10-18T01:07:47.540Z,3.88
2022-10-18T01:10:19.790Z,4.93
2022-10-18T01:12:50.120Z,4.67
2022-10-18T01:15:23.318Z,3.75
2022-10-18T01:17:55.319Z,3.42
2022-10-18T01:20:56.622Z,3.70
2022-10-18T01:23:32.885Z,3.80
2022-10-18T01:26:04.617Z,4.03
2022-10-18T01:28:39.778Z,4.55
2022-10-18T01:31:11.506Z,4.35
2022-10-18T01:33:41.306Z,3.85
2022-10-18T01:36:12.776Z,4.05
2022-10-18T01:38:41.981Z,4.40
2022-10-18T01:41:14.772Z,4.10
2022-10-18T01:43:44.867Z,4.53
2022-10-18T01:46:15.847Z,4.93
2022-10-18T01:48:43.970Z,5.65
2022-10-18T01:51:12.123Z,4.65
2022-10-18T01:53:39.931Z,5.35
2022-10-18T01:56:16.110Z,4.72
2022-10-18T01:58:47.239Z,4.90
2022-10-18T02:01:20.595Z,5.28
2022-10-18T02:03:50.248Z,5.45
2022-10-18T02:06:20.688Z,5.80
2022-10-18T02:08:51.048Z,5.78
2022-10-18T02:11:19.247Z,5.55
2022-10-18T02:13:48.919Z,5.05
2022-10-18T02:16:20.659Z,5.45
2022-10-18T02:18:51.198Z,5.82
2022-10-18T02:21:20.443Z,5.47
2022-10-18T02:23:48.313Z,5.25
2022-10-18T02:26:17.048Z,4.78
2022-10-18T02:28:45.127Z,4.45
2022-10-18T02:31:16.530Z,4.82
2022-10-18T02:33:47.579Z,5.80
2022-10-18T02:36:19.530Z,5.10
2022-10-18T02:38:48.067Z,5.07
2022-10-18T02:41:22.995Z,5.25
2022-10-18T02:43:51.083Z,4.97
2022-10-18T02:46:19.001Z,5.63
2022-10-18T02:48:48.196Z,5.95
2022-10-18T02:51:16.046Z,5.15
2022-10-18T02:53:43.818Z,6.35
2022-10-18T02:56:11.818Z,5.25
2022-10-18T02:58:39.722Z,6.80
2022-10-18T03:01:07.989Z,5.30
2022-10-18T03:03:35.823Z,6.05
2022-10-18T03:06:05.118Z,5.70
2022-10-18T03:08:33.030Z,5.32
2022-10-18T03:11:00.811Z,4.95
2022-10-18T03:15:57.718Z,5.60
2022-10-18T03:18:25.512Z,4.95
2022-10-18T03:20:53.431Z,5.15
2022-10-18T03:23:22.600Z,6.00
2022-10-18T03:25:50.420Z,5.13
2022-10-18T03:28:18.207Z,5.07
2022-10-18T03:30:46.238Z,6.10
2022-10-18T03:33:14.119Z,7.35
2022-10-18T03:35:41.982Z,5.93
2022-10-18T03:38:09.835Z,6.82
2022-10-18T03:40:39.094Z,6.63
2022-10-18T03:43:07.338Z,5.82
2022-10-18T03:45:35.320Z,5.95
2022-10-18T03:48:03.209Z,5.18
2022-10-18T03:50:31.537Z,6.47
2022-10-18T03:52:59.510Z,6.13
2022-10-18T03:55:27.461Z,6.07
2022-10-18T03:57:56.767Z,6.15
2022-10-18T04:00:24.607Z,6.90
2022-10-18T04:02:55.060Z,6.75
2022-10-18T04:05:26.820Z,6.95
2022-10-18T04:07:55.349Z,8.38
2022-10-18T04:10:23.188Z,7.20
2022-10-18T04:12:51.058Z,6.15
2022-10-18T04:15:20.224Z,6.93
2022-10-18T04:17:48.498Z,6.40
2022-10-18T04:20:16.414Z,5.70
2022-10-18T04:22:44.486Z,5.25
2022-10-18T04:25:12.439Z,6.20
2022-10-18T04:27:40.536Z,7.22
2022-10-18T04:30:08.800Z,5.95
2022-10-18T04:32:38.007Z,6.63
2022-10-18T04:35:06.986Z,6.30
2022-10-18T04:37:35.830Z,5.65
2022-10-18T04:40:04.289Z,5.65
2022-10-18T04:42:32.153Z,6.38
2022-10-18T04:45:00.296Z,6.05
2022-10-18T04:47:28.226Z,6.53
2022-10-18T04:49:57.536Z,7.03
2022-10-18T04:52:25.374Z,6.60
2022-10-18T04:54:53.364Z,6.68
2022-10-18T04:57:21.196Z,6.20
2022-10-18T04:59:49.039Z,6.88
2022-10-18T05:02:17.056Z,7.45
2022-10-18T05:04:44.828Z,7.03
2022-10-18T05:07:14.218Z,6.35
2022-10-18T05:09:42.280Z,6.75
2022-10-18T05:12:10.207Z,6.68
2022-10-18T05:14:38.338Z,6.50
2022-10-18T05:17:06.412Z,6.63
2022-10-18T05:19:34.328Z,7.60
2022-10-18T05:28:15.729Z,6.88
2022-10-18T05:30:54.845Z,8.05
2022-10-18T05:33:22.950Z,8.77
2022-10-18T05:35:50.802Z,8.57
2022-10-18T05:38:18.622Z,7.60
2022-10-18T05:40:46.698Z,7.68
2022-10-18T05:43:17.645Z,8.35
2022-10-18T05:45:48.408Z,7.85
2022-10-18T05:48:16.409Z,8.38
2022-10-18T05:50:44.209Z,8.75
2022-10-18T05:53:24.736Z,7.78
2022-10-18T05:56:01.195Z,8.77
2022-10-18T05:58:30.535Z,7.93
2022-10-18T06:00:59.292Z,8.32
2022-10-18T06:03:28.074Z,8.07
2022-10-18T06:05:59.966Z,9.18
2022-10-18T06:08:28.454Z,8.23
2022-10-18T06:10:56.337Z,9.05
2022-10-18T06:13:24.271Z,9.02
2022-10-18T06:15:56.413Z,9.57
2022-10-18T06:18:24.291Z,8.37
2022-10-18T06:20:56.924Z,8.60
2022-10-18T06:23:24.798Z,8.52
2022-10-18T06:25:52.799Z,8.63
2022-10-18T06:28:20.621Z,8.70
2022-10-18T06:30:51.159Z,8.10
2022-10-18T06:33:20.299Z,8.32
2022-10-18T06:35:55.208Z,8.77
2022-10-18T06:38:23.067Z,8.70
2022-10-18T06:40:50.938Z,9.20
2022-10-18T06:43:21.358Z,8.88
2022-10-18T06:45:49.430Z,8.07
2022-10-18T06:48:17.409Z,9.43
2022-10-18T06:50:52.741Z,8.82
2022-10-18T06:53:20.551Z,9.52
2022-10-18T06:55:48.341Z,7.80
2022-10-18T06:58:16.168Z,7.28
2022-10-18T07:00:45.247Z,7.72
2022-10-18T07:03:13.103Z,8.10
2022-10-18T07:05:41.106Z,8.35
2022-10-18T07:08:10.331Z,8.25
2022-10-18T07:10:39.509Z,7.00
2022-10-18T07:16:07.286Z,6.68
2022-10-18T07:18:35.536Z,8.18
2022-10-18T07:21:04.414Z,7.28
2022-10-18T07:23:37.568Z,7.80
2022-10-18T07:26:39.403Z,7.38
2022-10-18T07:29:08.513Z,7.22
2022-10-18T07:35:04.988Z,6.28
2022-10-18T07:38:03.826Z,5.30
2022-10-18T07:40:33.230Z,5.20
2022-10-18T07:43:04.532Z,5.78
2022-10-18T07:45:33.164Z,5.30
2022-10-18T07:48:03.003Z,5.65
2022-10-18T07:50:30.788Z,5.22
2022-10-18T07:52:58.741Z,5.25
2022-10-18T07:55:26.599Z,5.30
2022-10-18T07:57:56.402Z,5.20
2022-10-18T08:00:24.224Z,5.40
2022-10-18T08:02:56.506Z,5.32
2022-10-18T08:05:24.427Z,5.32
2022-10-18T08:07:52.326Z,5.32
2022-10-18T08:10:20.630Z,5.28
2022-10-18T08:12:48.609Z,4.90
2022-10-18T08:15:18.674Z,10.85
2022-10-18T08:17:46.507Z,4.70
2022-10-18T08:20:30.046Z,4.65
2022-10-18T08:23:00.342Z,4.45
2022-10-18T08:25:28.779Z,4.53
2022-10-18T08:27:56.772Z,4.20
2022-10-18T08:30:26.106Z,4.40
2022-10-18T08:32:55.598Z,4.32
2022-10-18T08:35:23.461Z,5.28
2022-10-18T08:37:51.298Z,4.60
2022-10-18T08:40:20.380Z,5.35
2022-10-18T08:43:04.106Z,5.00
2022-10-18T08:45:46.398Z,5.28
2022-10-18T08:48:19.265Z,5.18
2022-10-18T08:50:47.824Z,6.68
2022-10-18T08:53:17.675Z,4.90
2022-10-18T08:55:47.694Z,5.07
2022-10-18T08:58:17.113Z,4.70
2022-10-18T09:00:52.509Z,4.70
2022-10-18T09:03:27.159Z,4.22
2022-10-18T09:05:57.449Z,4.43
2022-10-18T09:08:36.443Z,5.28
2022-10-18T09:11:11.037Z,4.95
2022-10-18T09:13:57.570Z,3.53
2022-10-18T09:16:32.376Z,4.53
2022-10-18T09:19:07.506Z,4.65
2022-10-18T09:21:39.744Z,4.22
2022-10-18T09:24:12.964Z,5.27
2022-10-18T09:26:44.355Z,3.92
2022-10-18T09:31:57.549Z,3.65
2022-10-18T09:34:31.361Z,4.60
2022-10-18T09:37:00.097Z,4.47
2022-10-18T09:39:30.802Z,4.45
2022-10-18T09:41:59.953Z,5.38
2022-10-18T09:44:29.289Z,4.47
2022-10-18T09:47:01.692Z,4.03
2022-10-18T09:49:30.997Z,4.65
2022-10-18T09:52:00.583Z,4.15
2022-10-18T09:54:32.117Z,4.03
2022-10-18T09:57:03.258Z,4.10
2022-10-18T09:59:33.807Z,3.75
2022-10-18T10:02:03.140Z,3.38
2022-10-18T10:04:31.063Z,3.75
2022-10-18T10:07:00.883Z,3.60
2022-10-18T10:09:29.831Z,3.65
2022-10-18T10:11:58.283Z,3.45
2022-10-18T10:14:27.494Z,3.03
2022-10-18T10:16:56.617Z,3.22
2022-10-18T10:19:28.401Z,2.90
2022-10-18T10:21:59.078Z,3.17
2022-10-18T10:24:31.281Z,2.60
2022-10-18T10:27:00.282Z,3.45
2022-10-18T10:29:46.604Z,2.85
2022-10-18T10:32:15.011Z,2.92
2022-10-18T10:34:44.961Z,2.42
2022-10-18T10:37:24.381Z,2.45
2022-10-18T10:40:17.694Z,3.15
2022-10-18T10:43:12.762Z,2.40
2022-10-18T10:45:44.367Z,4.28
2022-10-18T10:48:15.997Z,5.53
2022-10-18T10:50:56.031Z,5.88
2022-10-18T10:53:27.605Z,5.70
2022-10-18T10:55:55.926Z,5.20
2022-10-18T10:58:24.243Z,5.65
2022-10-18T11:00:52.083Z,5.35
2022-10-18T11:03:29.195Z,5.05
2022-10-18T11:06:01.008Z,5.15
2022-10-18T11:08:31.865Z,4.70
2022-10-18T11:11:05.975Z,4.80
2022-10-18T11:13:41.959Z,4.22
2022-10-18T11:16:14.676Z,4.25
2022-10-18T11:18:44.845Z,5.00
2022-10-18T11:21:16.034Z,4.60
2022-10-18T11:23:45.079Z,4.80
2022-10-18T11:26:24.359Z,4.57
2022-10-18T11:29:13.103Z,3.83
2022-10-18T11:31:42.820Z,4.25
2022-10-18T11:34:18.044Z,4.22
2022-10-18T11:37:02.304Z,4.45
2022-10-18T11:39:43.049Z,4.88
2022-10-18T11:42:14.369Z,5.10
2022-10-18T11:44:47.477Z,4.95
2022-10-18T11:49:47.872Z,4.80
2022-10-18T11:52:20.893Z,3.67
2022-10-18T11:57:26.008Z,3.28
2022-10-18T11:59:59.962Z,2.90
2022-10-18T12:02:45.115Z,3.20
2022-10-18T12:05:29.241Z,2.47
2022-10-18T12:08:03.197Z,2.35
2022-10-18T12:10:45.798Z,2.45
2022-10-18T12:13:24.030Z,2.22
2022-10-18T12:15:52.513Z,2.22
2022-10-18T12:18:22.620Z,2.22
2022-10-18T12:20:52.113Z,2.35
2022-10-18T12:23:27.040Z,2.03
2022-10-18T12:25:56.595Z,2.28
2022-10-18T12:28:28.244Z,2.03
2022-10-18T12:30:59.008Z,2.17
2022-10-18T12:33:29.938Z,2.50
2022-10-18T12:36:02.124Z,1.90
2022-10-18T12:38:32.536Z,2.20
2022-10-18T12:41:01.028Z,2.08
2022-10-18T12:43:32.791Z,2.35
2022-10-18T12:46:02.275Z,2.60
2022-10-18T12:48:31.775Z,2.03
2022-10-18T12:51:01.199Z,1.80
2022-10-18T12:53:29.543Z,2.13
2022-10-18T12:56:20.829Z,1.73
2022-10-18T13:01:18.810Z,1.85
2022-10-18T13:03:55.336Z,1.85
2022-10-18T13:06:23.887Z,2.00
2022-10-18T13:09:09.514Z,1.92
2022-10-18T13:11:38.780Z,1.73
2022-10-18T13:14:11.922Z,1.90
2022-10-18T13:16:43.296Z,1.85
2022-10-18T13:19:18.567Z,1.63
2022-10-18T13:21:49.994Z,1.80
2022-10-18T13:24:26.446Z,4.50
2022-10-18T13:27:37.447Z,2.10
2022-10-18T13:30:12.407Z,1.80
2022-10-18T13:32:46.021Z,1.95
2022-10-18T13:35:28.711Z,1.83
2022-10-18T13:37:59.576Z,1.60
2022-10-18T13:40:27.530Z,2.10
2022-10-18T13:42:57.103Z,2.17
2022-10-18T13:45:44.733Z,2.10
2022-10-18T13:48:31.551Z,2.03
2022-10-18T13:51:00.548Z,1.95
2022-10-18T13:53:40.709Z,1.95
2022-10-18T13:56:23.665Z,1.70
2022-10-18T13:59:13.442Z,1.85
2022-10-18T14:01:52.793Z,1.73
2022-10-18T14:04:32.292Z,1.77
2022-10-18T14:07:02.502Z,2.13
2022-10-18T14:09:52.399Z,2.20
2022-10-18T14:12:31.898Z,1.80
2022-10-18T14:15:05.644Z,2.17
2022-10-18T14:17:36.449Z,2.13
2022-10-18T14:20:13.008Z,1.67
2022-10-18T14:22:44.290Z,2.20
2022-10-18T14:25:20.472Z,1.60
2022-10-18T14:27:50.970Z,2.20
2022-10-18T14:30:23.339Z,2.00
2022-10-18T14:32:54.465Z,2.70
2022-10-18T14:35:38.665Z,3.10
2022-10-18T14:38:07.117Z,3.22
2022-10-18T14:40:37.835Z,3.15
2022-10-18T14:43:07.885Z,2.85
2022-10-18T14:45:37.099Z,2.80
2022-10-18T14:48:08.996Z,2.88
2022-10-18T14:50:36.826Z,3.25
2022-10-18T14:53:08.236Z,3.03
2022-10-18T14:55:37.356Z,3.17
2022-10-18T14:58:10.230Z,2.70
2022-10-18T15:00:41.874Z,2.28
2022-10-18T15:03:14.130Z,2.70
2022-10-18T15:05:52.247Z,2.80
2022-10-18T15:08:20.546Z,2.40
2022-10-18T15:10:49.957Z,3.13
2022-10-18T15:13:18.400Z,3.22
2022-10-18T15:15:48.063Z,5.28
2022-10-18T15:18:20.931Z,5.45
2022-10-18T15:21:07.700Z,4.60
2022-10-18T15:23:35.555Z,4.28
2022-10-18T15:26:05.550Z,4.25
2022-10-18T15:28:35.973Z,3.97
2022-10-18T15:31:06.691Z,3.50
2022-10-18T15:33:34.854Z,3.20
2022-10-18T15:36:10.355Z,3.67
2022-10-18T15:38:38.578Z,3.85
2022-10-18T15:41:21.575Z,4.07
2022-10-18T15:43:49.459Z,2.60
2022-10-18T15:46:30.567Z,3.40
2022-10-18T15:49:01.573Z,3.92
2022-10-18T15:51:41.398Z,3.50
2022-10-18T15:54:18.018Z,4.47
2022-10-18T15:56:46.779Z,6.28
2022-10-18T15:59:22.750Z,8.40
2022-10-18T16:01:52.064Z,7.68
2022-10-18T16:04:21.730Z,8.23
2022-10-18T16:06:49.865Z,7.40
2022-10-18T16:09:18.285Z,5.28
2022-10-18T16:11:46.980Z,5.20
2022-10-18T16:14:14.778Z,4.22
2022-10-18T16:16:42.660Z,3.95
2022-10-18T16:19:14.551Z,4.15
2022-10-18T16:21:42.424Z,3.83
2022-10-18T16:24:10.189Z,3.60
2022-10-18T16:26:38.463Z,3.58
2022-10-18T16:29:06.495Z,3.47
2022-10-18T16:31:35.036Z,3.53
2022-10-18T16:34:03.112Z,3.83
2022-10-18T16:36:33.091Z,3.83
2022-10-18T16:39:02.936Z,3.17
2022-10-18T16:41:30.953Z,3.60
2022-10-18T16:43:58.739Z,4.72
2022-10-18T16:46:28.608Z,4.40
2022-10-18T16:48:56.874Z,4.30
2022-10-18T16:51:24.968Z,4.80
2022-10-18T16:53:54.707Z,4.75
2022-10-18T16:56:24.069Z,5.72
2022-10-18T16:58:51.969Z,6.47
2022-10-18T17:01:21.176Z,6.13
2022-10-18T17:03:51.083Z,8.52
2022-10-18T17:06:20.502Z,7.70
2022-10-18T17:08:48.995Z,7.15
2022-10-18T17:11:18.913Z,6.72
2022-10-18T17:13:46.856Z,6.55
2022-10-18T17:16:22.188Z,6.80
2022-10-18T17:18:50.123Z,6.63
2022-10-18T17:21:18.249Z,7.07
2022-10-18T17:23:46.166Z,6.63
2022-10-18T17:26:28.385Z,7.38
2022-10-18T17:28:59.405Z,6.20
2022-10-18T17:31:27.867Z,6.78
2022-10-18T17:33:55.957Z,6.88
2022-10-18T17:36:23.788Z,6.43
2022-10-18T17:38:52.074Z,6.18
2022-10-18T17:41:20.010Z,6.07
2022-10-18T17:43:48.161Z,6.18
2022-10-18T17:46:18.251Z,6.30
2022-10-18T17:48:46.134Z,6.10
2022-10-18T17:51:14.868Z,6.50
2022-10-18T17:53:42.804Z,7.72
2022-10-18T17:56:11.688Z,8.02
2022-10-18T17:58:39.471Z,8.52
2022-10-18T18:01:11.175Z,9.80
2022-10-18T18:03:40.659Z,9.15
2022-10-18T18:06:15.849Z,9.25
2022-10-18T18:08:44.097Z,7.88
2022-10-18T18:11:11.953Z,7.45
2022-10-18T18:13:40.162Z,8.13
2022-10-18T18:16:12.054Z,7.57
2022-10-18T18:18:41.648Z,7.85
2022-10-18T18:21:09.541Z,7.93
2022-10-18T18:23:37.375Z,7.35
2022-10-18T18:26:07.430Z,7.53
2022-10-18T18:28:35.971Z,8.05
2022-10-18T18:31:06.242Z,8.63
2022-10-18T18:33:34.130Z,7.97
2022-10-18T18:36:04.945Z,9.18
2022-10-18T18:38:32.864Z,7.65
2022-10-18T18:41:04.659Z,8.07
2022-10-18T18:43:32.500Z,8.82
2022-10-18T18:46:01.215Z,8.25
2022-10-18T18:48:29.608Z,8.23
2022-10-18T18:50:57.438Z,8.73
2022-10-18T18:53:29.495Z,7.80
2022-10-18T18:56:01.884Z,9.48
2022-10-18T18:58:29.734Z,7.60
2022-10-18T19:00:57.862Z,9.63
2022-10-18T19:03:26.069Z,9.50
2022-10-18T19:06:02.986Z,9.40
2022-10-18T19:08:34.054Z,10.85
2022-10-18T19:11:01.896Z,9.40
2022-10-18T19:13:29.759Z,11.38
2022-10-18T19:16:11.061Z,9.85
2022-10-18T19:18:38.873Z,10.98
2022-10-18T19:21:08.789Z,10.45
2022-10-18T19:23:37.932Z,11.85
2022-10-18T19:26:12.070Z,10.55
2022-10-18T19:28:40.190Z,12.35
2022-10-18T19:31:08.348Z,11.70
2022-10-18T19:33:48.563Z,11.30
2022-10-18T19:36:23.749Z,10.98
2022-10-18T19:38:53.129Z,11.15
2022-10-18T19:41:21.432Z,10.93
2022-10-18T19:43:49.376Z,11.40
2022-10-18T19:46:17.368Z,11.63
2022-10-18T19:48:45.214Z,11.23
2022-10-18T19:51:17.301Z,11.73
2022-10-18T19:53:48.830Z,11.50
2022-10-18T19:56:19.751Z,12.52
2022-10-18T19:58:48.107Z,11.23
2022-10-18T20:01:16.373Z,11.75
2022-10-18T20:03:44.523Z,13.18
2022-10-18T20:06:12.569Z,11.73
2022-10-18T20:08:40.451Z,12.75
2022-10-18T20:11:10.056Z,13.18
2022-10-18T20:13:39.457Z,13.02
2022-10-18T20:16:08.874Z,12.50
2022-10-18T20:18:36.983Z,12.65
2022-10-18T20:21:05.158Z,13.18
2022-10-18T20:23:33.360Z,12.88
2022-10-18T20:26:02.665Z,11.98
2022-10-18T20:28:30.958Z,11.95
2022-10-18T20:31:04.443Z,12.23
2022-10-18T20:33:32.428Z,12.43
2022-10-18T20:36:04.225Z,12.07
2022-10-18T20:38:32.961Z,12.68
2022-10-18T20:41:04.631Z,13.07
2022-10-18T20:43:37.683Z,13.23
2022-10-18T20:48:35.262Z,11.27
2022-10-18T20:51:06.875Z,12.98
2022-10-18T20:53:35.490Z,12.88
2022-10-18T20:56:04.532Z,13.57
2022-10-18T20:58:32.740Z,11.75
2022-10-18T21:01:05.813Z,12.73
2022-10-18T21:06:02.973Z,12.35
2022-10-18T21:08:30.894Z,11.90
2022-10-18T21:11:01.353Z,12.05
2022-10-18T21:13:29.197Z,12.05
2022-10-18T21:15:57.383Z,11.80
2022-10-18T21:18:25.725Z,15.80
2022-10-18T21:20:53.865Z,12.43
2022-10-18T21:23:23.717Z,13.00
2022-10-18T21:25:51.561Z,11.88
2022-10-18T21:28:19.478Z,11.93
2022-10-18T21:30:47.421Z,12.20
2022-10-18T21:33:15.255Z,11.00
2022-10-18T21:35:43.260Z,11.05
2022-10-18T21:38:11.038Z,11.85
2022-10-18T21:40:44.520Z,11.45
2022-10-18T21:43:12.830Z,10.70
2022-10-18T21:45:40.630Z,11.00
2022-10-18T21:48:08.591Z,12.38
2022-10-18T21:50:36.474Z,11.35
2022-10-18T21:53:04.402Z,12.23
2022-10-18T21:55:32.571Z,11.50
2022-10-18T21:58:01.745Z,15.55
2022-10-18T22:00:29.647Z,14.77
2022-10-18T22:03:07.108Z,13.73
2022-10-18T22:05:35.013Z,9.75
2022-10-18T22:08:02.935Z,9.50
2022-10-18T22:10:30.816Z,8.43
2022-10-18T22:12:58.903Z,8.77
2022-10-18T22:15:28.090Z,8.40
2022-10-18T22:17:56.350Z,8.93
2022-10-18T22:20:24.162Z,8.38
2022-10-18T22:22:54.067Z,6.60
2022-10-18T22:25:21.981Z,7.55
2022-10-18T22:27:49.756Z,7.00
2022-10-18T22:30:18.042Z,6.45
2022-10-18T22:32:47.435Z,7.25
2022-10-18T22:35:15.373Z,6.65
2022-10-18T22:37:43.177Z,8.82
2022-10-18T22:40:11.498Z,8.02
2022-10-18T22:42:39.574Z,8.38
2022-10-18T22:45:08.176Z,8.65
2022-10-18T22:47:36.494Z,9.38
2022-10-18T22:50:06.485Z,8.00
2022-10-18T22:52:34.772Z,10.18
2022-10-18T22:55:05.060Z,7.65
2022-10-18T22:57:33.108Z,9.15
2022-10-18T23:00:01.201Z,12.65
2022-10-18T23:02:32.150Z,11.48
2022-10-18T23:05:00.120Z,8.32
2022-10-18T23:07:29.530Z,8.95
2022-10-18T23:09:57.607Z,7.72
2022-10-18T23:12:25.451Z,7.55
2022-10-18T23:14:53.692Z,9.75
2022-10-18T23:17:21.647Z,5.70
2022-10-18T23:19:49.454Z,9.60
2022-10-18T23:22:21.312Z,9.02
2022-10-18T23:24:50.468Z,8.15
2022-10-18T23:27:18.509Z,8.65
2022-10-18T23:29:46.323Z,8.48
2022-10-18T23:32:14.352Z,9.75
2022-10-18T23:34:42.299Z,7.85
2022-10-18T23:37:10.383Z,8.35
2022-10-18T23:39:38.219Z,9.48
2022-10-18T23:42:07.592Z,7.47
2022-10-18T23:44:35.512Z,6.18
2022-10-18T23:47:03.434Z,6.35
2022-10-18T23:49:31.653Z,6.70
2022-10-18T23:51:59.480Z,8.98
2022-10-18T23:54:27.229Z,5.55
2022-10-18T23:56:55.266Z,7.97
2022-10-18T23:59:24.438Z,10.43
